sensor_id;sensor_type;location;lat;lon;timestamp;P1;durP1;ratioP1;P2;durP2;ratioP2
64367;SDS011;50692;53.314;-6.300;2023-04-23T00:01:30;16.47;;;11.73;;
64367;SDS011;50692;53.314;-6.300;2023-04-23T00:04:19;18.92;;;12.77;;
64367;SDS011;50692;53.314;-6.300;2023-04-23T00:07:07;15.07;;;10.60;;
64367;SDS011;50692;53.314;-6.300;2023-04-23T00:09:53;14.60;;;10.30;;
64367;SDS011;50692;53.314;-6.300;2023-04-23T00:12:42;13.10;;;9.80;;
64367;SDS011;50692;53.314;-6.300;2023-04-23T00:15:28;11.97;;;9.17;;
64367;SDS011;50692;53.314;-6.300;2023-04-23T00:18:15;10.93;;;8.03;;
64367;SDS011;50692;53.314;-6.300;2023-04-23T00:21:01;10.13;;;7.30;;
64367;SDS011;50692;53.314;-6.300;2023-04-23T00:23:47;10.37;;;7.63;;
64367;SDS011;50692;53.314;-6.300;2023-04-23T00:26:33;12.37;;;8.50;;
64367;SDS011;50692;53.314;-6.300;2023-04-23T00:29:18;11.00;;;7.83;;
64367;SDS011;50692;53.314;-6.300;2023-04-23T00:32:05;11.07;;;7.63;;
64367;SDS011;50692;53.314;-6.300;2023-04-23T00:34:52;11.97;;;8.93;;
64367;SDS011;50692;53.314;-6.300;2023-04-23T00:37:39;10.27;;;8.03;;
64367;SDS011;50692;53.314;-6.300;2023-04-23T00:40:25;13.60;;;8.80;;
64367;SDS011;50692;53.314;-6.300;2023-04-23T00:43:11;12.73;;;8.70;;
64367;SDS011;50692;53.314;-6.300;2023-04-23T00:45:57;12.67;;;8.63;;
64367;SDS011;50692;53.314;-6.300;2023-04-23T00:48:44;13.30;;;8.40;;
64367;SDS011;50692;53.314;-6.300;2023-04-23T00:51:31;10.47;;;8.13;;
64367;SDS011;50692;53.314;-6.300;2023-04-23T00:54:17;12.73;;;8.73;;
64367;SDS011;50692;53.314;-6.300;2023-04-23T00:57:03;10.90;;;8.70;;
64367;SDS011;50692;53.314;-6.300;2023-04-23T00:59:49;11.63;;;8.93;;
64367;SDS011;50692;53.314;-6.300;2023-04-23T01:02:35;11.13;;;8.60;;
64367;SDS011;50692;53.314;-6.300;2023-04-23T01:05:22;10.73;;;7.97;;
64367;SDS011;50692;53.314;-6.300;2023-04-23T01:08:09;9.77;;;6.37;;
64367;SDS011;50692;53.314;-6.300;2023-04-23T01:10:59;6.57;;;4.53;;
64367;SDS011;50692;53.314;-6.300;2023-04-23T01:13:48;4.68;;;3.47;;
64367;SDS011;50692;53.314;-6.300;2023-04-23T01:16:35;4.70;;;3.13;;
64367;SDS011;50692;53.314;-6.300;2023-04-23T01:19:22;4.20;;;2.90;;
64367;SDS011;50692;53.314;-6.300;2023-04-23T01:22:09;3.70;;;2.67;;
64367;SDS011;50692;53.314;-6.300;2023-04-23T01:24:56;3.50;;;2.60;;
64367;SDS011;50692;53.314;-6.300;2023-04-23T01:27:42;3.70;;;2.67;;
64367;SDS011;50692;53.314;-6.300;2023-04-23T01:30:28;4.13;;;2.70;;
64367;SDS011;50692;53.314;-6.300;2023-04-23T01:33:15;3.10;;;2.37;;
64367;SDS011;50692;53.314;-6.300;2023-04-23T01:36:01;3.57;;;2.10;;
64367;SDS011;50692;53.314;-6.300;2023-04-23T01:38:47;2.87;;;2.03;;
64367;SDS011;50692;53.314;-6.300;2023-04-23T01:41:33;2.40;;;1.80;;
64367;SDS011;50692;53.314;-6.300;2023-04-23T01:44:20;3.13;;;2.00;;
64367;SDS011;50692;53.314;-6.300;2023-04-23T01:47:06;2.77;;;2.07;;
64367;SDS011;50692;53.314;-6.300;2023-04-23T01:49:52;4.90;;;2.93;;
64367;SDS011;50692;53.314;-6.300;2023-04-23T01:52:38;2.60;;;2.00;;
64367;SDS011;50692;53.314;-6.300;2023-04-23T01:55:24;3.23;;;2.03;;
64367;SDS011;50692;53.314;-6.300;2023-04-23T01:58:10;2.90;;;2.20;;
64367;SDS011;50692;53.314;-6.300;2023-04-23T02:00:56;2.67;;;1.90;;
64367;SDS011;50692;53.314;-6.300;2023-04-23T02:03:42;2.47;;;1.83;;
64367;SDS011;50692;53.314;-6.300;2023-04-23T02:06:29;3.93;;;2.00;;
64367;SDS011;50692;53.314;-6.300;2023-04-23T02:09:16;2.27;;;1.67;;
64367;SDS011;50692;53.314;-6.300;2023-04-23T02:12:02;2.03;;;1.73;;
64367;SDS011;50692;53.314;-6.300;2023-04-23T02:14:48;2.17;;;1.53;;
64367;SDS011;50692;53.314;-6.300;2023-04-23T02:17:34;3.40;;;1.83;;
64367;SDS011;50692;53.314;-6.300;2023-04-23T02:20:20;3.07;;;1.87;;
64367;SDS011;50692;53.314;-6.300;2023-04-23T02:23:09;2.38;;;1.88;;
64367;SDS011;50692;53.314;-6.300;2023-04-23T02:25:55;2.67;;;1.83;;
64367;SDS011;50692;53.314;-6.300;2023-04-23T02:28:41;3.10;;;2.00;;
64367;SDS011;50692;53.314;-6.300;2023-04-23T02:31:27;2.33;;;1.80;;
64367;SDS011;50692;53.314;-6.300;2023-04-23T02:34:12;2.87;;;2.20;;
64367;SDS011;50692;53.314;-6.300;2023-04-23T02:36:58;3.10;;;2.33;;
64367;SDS011;50692;53.314;-6.300;2023-04-23T02:39:44;2.93;;;2.13;;
64367;SDS011;50692;53.314;-6.300;2023-04-23T02:42:30;3.20;;;2.47;;
64367;SDS011;50692;53.314;-6.300;2023-04-23T02:45:16;3.50;;;2.60;;
64367;SDS011;50692;53.314;-6.300;2023-04-23T02:48:02;3.97;;;2.73;;
64367;SDS011;50692;53.314;-6.300;2023-04-23T02:50:48;3.53;;;2.50;;
64367;SDS011;50692;53.314;-6.300;2023-04-23T02:53:34;5.07;;;3.10;;
64367;SDS011;50692;53.314;-6.300;2023-04-23T02:56:20;3.87;;;3.03;;
64367;SDS011;50692;53.314;-6.300;2023-04-23T02:59:06;3.73;;;2.70;;
64367;SDS011;50692;53.314;-6.300;2023-04-23T03:01:52;4.13;;;2.63;;
64367;SDS011;50692;53.314;-6.300;2023-04-23T03:04:38;5.20;;;3.20;;
64367;SDS011;50692;53.314;-6.300;2023-04-23T03:07:24;4.43;;;2.87;;
64367;SDS011;50692;53.314;-6.300;2023-04-23T03:10:10;4.43;;;2.87;;
64367;SDS011;50692;53.314;-6.300;2023-04-23T03:12:55;4.07;;;2.80;;
64367;SDS011;50692;53.314;-6.300;2023-04-23T03:15:41;4.80;;;2.97;;
64367;SDS011;50692;53.314;-6.300;2023-04-23T03:18:27;4.27;;;3.10;;
64367;SDS011;50692;53.314;-6.300;2023-04-23T03:21:13;4.77;;;3.10;;
64367;SDS011;50692;53.314;-6.300;2023-04-23T03:23:59;4.57;;;3.50;;
64367;SDS011;50692;53.314;-6.300;2023-04-23T03:26:45;5.33;;;3.50;;
64367;SDS011;50692;53.314;-6.300;2023-04-23T03:29:31;4.20;;;3.27;;
64367;SDS011;50692;53.314;-6.300;2023-04-23T03:32:17;4.83;;;3.47;;
64367;SDS011;50692;53.314;-6.300;2023-04-23T03:35:03;5.50;;;3.60;;
64367;SDS011;50692;53.314;-6.300;2023-04-23T03:37:49;5.47;;;3.57;;
64367;SDS011;50692;53.314;-6.300;2023-04-23T03:40:35;4.97;;;3.70;;
64367;SDS011;50692;53.314;-6.300;2023-04-23T03:43:20;5.30;;;3.90;;
64367;SDS011;50692;53.314;-6.300;2023-04-23T03:46:06;4.83;;;3.73;;
64367;SDS011;50692;53.314;-6.300;2023-04-23T03:48:52;5.53;;;3.63;;
64367;SDS011;50692;53.314;-6.300;2023-04-23T03:51:38;5.50;;;3.47;;
64367;SDS011;50692;53.314;-6.300;2023-04-23T03:54:24;6.23;;;4.03;;
64367;SDS011;50692;53.314;-6.300;2023-04-23T03:57:10;4.60;;;3.77;;
64367;SDS011;50692;53.314;-6.300;2023-04-23T03:59:56;5.40;;;3.73;;
64367;SDS011;50692;53.314;-6.300;2023-04-23T04:02:42;6.50;;;4.70;;
64367;SDS011;50692;53.314;-6.300;2023-04-23T04:05:28;6.43;;;4.40;;
64367;SDS011;50692;53.314;-6.300;2023-04-23T04:08:14;6.80;;;5.03;;
64367;SDS011;50692;53.314;-6.300;2023-04-23T04:10:59;6.93;;;4.87;;
64367;SDS011;50692;53.314;-6.300;2023-04-23T04:13:45;5.10;;;3.40;;
64367;SDS011;50692;53.314;-6.300;2023-04-23T04:16:31;4.33;;;3.57;;
64367;SDS011;50692;53.314;-6.300;2023-04-23T04:19:17;4.87;;;3.43;;
64367;SDS011;50692;53.314;-6.300;2023-04-23T04:22:03;4.23;;;3.27;;
64367;SDS011;50692;53.314;-6.300;2023-04-23T04:24:50;4.20;;;3.30;;
64367;SDS011;50692;53.314;-6.300;2023-04-23T04:27:37;5.40;;;3.40;;
64367;SDS011;50692;53.314;-6.300;2023-04-23T04:30:23;5.57;;;3.77;;
64367;SDS011;50692;53.314;-6.300;2023-04-23T04:33:09;5.43;;;3.47;;
64367;SDS011;50692;53.314;-6.300;2023-04-23T04:35:55;5.13;;;3.73;;
64367;SDS011;50692;53.314;-6.300;2023-04-23T04:38:41;3.83;;;3.43;;
64367;SDS011;50692;53.314;-6.300;2023-04-23T04:41:28;4.13;;;3.17;;
64367;SDS011;50692;53.314;-6.300;2023-04-23T04:44:14;5.03;;;4.10;;
64367;SDS011;50692;53.314;-6.300;2023-04-23T04:47:00;5.37;;;3.70;;
64367;SDS011;50692;53.314;-6.300;2023-04-23T04:49:46;5.27;;;3.67;;
64367;SDS011;50692;53.314;-6.300;2023-04-23T04:52:33;4.80;;;3.23;;
64367;SDS011;50692;53.314;-6.300;2023-04-23T04:55:18;4.53;;;4.03;;
64367;SDS011;50692;53.314;-6.300;2023-04-23T04:58:04;5.27;;;3.90;;
64367;SDS011;50692;53.314;-6.300;2023-04-23T05:00:50;7.67;;;4.60;;
64367;SDS011;50692;53.314;-6.300;2023-04-23T05:03:36;6.23;;;4.70;;
64367;SDS011;50692;53.314;-6.300;2023-04-23T05:06:23;6.87;;;5.23;;
64367;SDS011;50692;53.314;-6.300;2023-04-23T05:09:09;6.80;;;4.87;;
64367;SDS011;50692;53.314;-6.300;2023-04-23T05:11:55;7.60;;;5.27;;
64367;SDS011;50692;53.314;-6.300;2023-04-23T05:14:42;7.47;;;5.43;;
64367;SDS011;50692;53.314;-6.300;2023-04-23T05:17:28;7.17;;;5.20;;
64367;SDS011;50692;53.314;-6.300;2023-04-23T05:20:13;8.10;;;5.67;;
64367;SDS011;50692;53.314;-6.300;2023-04-23T05:22:59;8.47;;;6.20;;
64367;SDS011;50692;53.314;-6.300;2023-04-23T05:25:46;11.53;;;9.10;;
64367;SDS011;50692;53.314;-6.300;2023-04-23T05:28:32;10.43;;;8.10;;
64367;SDS011;50692;53.314;-6.300;2023-04-23T05:31:18;9.97;;;7.97;;
64367;SDS011;50692;53.314;-6.300;2023-04-23T05:34:04;8.10;;;6.27;;
64367;SDS011;50692;53.314;-6.300;2023-04-23T05:36:50;8.30;;;6.07;;
64367;SDS011;50692;53.314;-6.300;2023-04-23T05:39:35;7.93;;;5.90;;
64367;SDS011;50692;53.314;-6.300;2023-04-23T05:42:21;8.33;;;5.73;;
64367;SDS011;50692;53.314;-6.300;2023-04-23T05:45:07;7.83;;;5.70;;
64367;SDS011;50692;53.314;-6.300;2023-04-23T05:47:53;8.37;;;5.67;;
64367;SDS011;50692;53.314;-6.300;2023-04-23T05:50:39;9.13;;;6.07;;
64367;SDS011;50692;53.314;-6.300;2023-04-23T05:53:26;8.93;;;6.37;;
64367;SDS011;50692;53.314;-6.300;2023-04-23T05:56:12;10.33;;;6.63;;
64367;SDS011;50692;53.314;-6.300;2023-04-23T05:58:58;9.70;;;6.37;;
64367;SDS011;50692;53.314;-6.300;2023-04-23T06:01:44;10.20;;;6.77;;
64367;SDS011;50692;53.314;-6.300;2023-04-23T06:04:31;10.20;;;6.63;;
64367;SDS011;50692;53.314;-6.300;2023-04-23T06:07:18;10.37;;;6.90;;
64367;SDS011;50692;53.314;-6.300;2023-04-23T06:10:04;10.30;;;6.67;;
64367;SDS011;50692;53.314;-6.300;2023-04-23T06:12:51;10.40;;;6.47;;
64367;SDS011;50692;53.314;-6.300;2023-04-23T06:15:38;10.20;;;6.77;;
64367;SDS011;50692;53.314;-6.300;2023-04-23T06:18:24;10.77;;;7.10;;
64367;SDS011;50692;53.314;-6.300;2023-04-23T06:21:10;11.20;;;7.07;;
64367;SDS011;50692;53.314;-6.300;2023-04-23T06:23:56;10.07;;;7.53;;
64367;SDS011;50692;53.314;-6.300;2023-04-23T06:26:41;9.83;;;6.73;;
64367;SDS011;50692;53.314;-6.300;2023-04-23T06:29:27;9.60;;;7.00;;
64367;SDS011;50692;53.314;-6.300;2023-04-23T06:32:13;10.53;;;7.27;;
64367;SDS011;50692;53.314;-6.300;2023-04-23T06:35:00;10.77;;;7.77;;
64367;SDS011;50692;53.314;-6.300;2023-04-23T06:37:46;9.27;;;7.03;;
64367;SDS011;50692;53.314;-6.300;2023-04-23T06:40:32;9.20;;;6.67;;
64367;SDS011;50692;53.314;-6.300;2023-04-23T06:43:18;11.60;;;6.77;;
64367;SDS011;50692;53.314;-6.300;2023-04-23T06:46:03;9.03;;;6.37;;
64367;SDS011;50692;53.314;-6.300;2023-04-23T06:48:49;9.83;;;6.90;;
64367;SDS011;50692;53.314;-6.300;2023-04-23T06:51:35;11.70;;;7.63;;
64367;SDS011;50692;53.314;-6.300;2023-04-23T06:54:21;9.10;;;6.10;;
64367;SDS011;50692;53.314;-6.300;2023-04-23T06:57:08;11.47;;;8.10;;
64367;SDS011;50692;53.314;-6.300;2023-04-23T06:59:54;10.37;;;7.73;;
64367;SDS011;50692;53.314;-6.300;2023-04-23T07:02:41;12.07;;;8.43;;
64367;SDS011;50692;53.314;-6.300;2023-04-23T07:05:27;13.10;;;9.27;;
64367;SDS011;50692;53.314;-6.300;2023-04-23T07:08:14;13.43;;;9.03;;
64367;SDS011;50692;53.314;-6.300;2023-04-23T07:11:00;14.10;;;10.30;;
64367;SDS011;50692;53.314;-6.300;2023-04-23T07:13:46;17.57;;;10.77;;
64367;SDS011;50692;53.314;-6.300;2023-04-23T07:16:32;12.73;;;8.93;;
64367;SDS011;50692;53.314;-6.300;2023-04-23T07:19:18;12.37;;;9.13;;
64367;SDS011;50692;53.314;-6.300;2023-04-23T07:22:04;14.97;;;8.63;;
64367;SDS011;50692;53.314;-6.300;2023-04-23T07:24:50;11.90;;;9.13;;
64367;SDS011;50692;53.314;-6.300;2023-04-23T07:27:36;12.93;;;9.23;;
64367;SDS011;50692;53.314;-6.300;2023-04-23T07:30:22;13.33;;;8.90;;
64367;SDS011;50692;53.314;-6.300;2023-04-23T07:33:10;13.40;;;9.17;;
64367;SDS011;50692;53.314;-6.300;2023-04-23T07:35:56;11.20;;;8.13;;
64367;SDS011;50692;53.314;-6.300;2023-04-23T07:38:42;11.97;;;8.57;;
64367;SDS011;50692;53.314;-6.300;2023-04-23T07:41:28;10.40;;;7.70;;
64367;SDS011;50692;53.314;-6.300;2023-04-23T07:44:14;12.57;;;8.47;;
64367;SDS011;50692;53.314;-6.300;2023-04-23T07:47:00;10.73;;;8.60;;
64367;SDS011;50692;53.314;-6.300;2023-04-23T07:49:46;12.13;;;8.17;;
64367;SDS011;50692;53.314;-6.300;2023-04-23T07:52:32;11.57;;;7.60;;
64367;SDS011;50692;53.314;-6.300;2023-04-23T07:55:17;10.03;;;7.20;;
64367;SDS011;50692;53.314;-6.300;2023-04-23T07:58:04;10.30;;;7.73;;
64367;SDS011;50692;53.314;-6.300;2023-04-23T08:00:50;9.17;;;7.10;;
64367;SDS011;50692;53.314;-6.300;2023-04-23T08:03:36;10.93;;;7.63;;
64367;SDS011;50692;53.314;-6.300;2023-04-23T08:06:22;9.50;;;7.13;;
64367;SDS011;50692;53.314;-6.300;2023-04-23T08:09:08;9.63;;;7.23;;
64367;SDS011;50692;53.314;-6.300;2023-04-23T08:11:54;10.40;;;7.33;;
64367;SDS011;50692;53.314;-6.300;2023-04-23T08:14:42;9.73;;;7.47;;
64367;SDS011;50692;53.314;-6.300;2023-04-23T08:17:28;9.50;;;7.13;;
64367;SDS011;50692;53.314;-6.300;2023-04-23T08:20:14;12.10;;;7.60;;
64367;SDS011;50692;53.314;-6.300;2023-04-23T08:23:00;12.47;;;7.83;;
64367;SDS011;50692;53.314;-6.300;2023-04-23T08:25:46;10.73;;;8.27;;
64367;SDS011;50692;53.314;-6.300;2023-04-23T08:28:32;9.27;;;7.00;;
64367;SDS011;50692;53.314;-6.300;2023-04-23T08:31:18;9.43;;;6.83;;
64367;SDS011;50692;53.314;-6.300;2023-04-23T08:34:04;9.93;;;7.50;;
64367;SDS011;50692;53.314;-6.300;2023-04-23T08:36:49;8.93;;;6.90;;
64367;SDS011;50692;53.314;-6.300;2023-04-23T08:39:35;9.60;;;7.00;;
64367;SDS011;50692;53.314;-6.300;2023-04-23T08:45:31;9.40;;;6.70;;
64367;SDS011;50692;53.314;-6.300;2023-04-23T08:48:19;9.97;;;7.47;;
64367;SDS011;50692;53.314;-6.300;2023-04-23T08:51:07;10.73;;;6.87;;
64367;SDS011;50692;53.314;-6.300;2023-04-23T08:53:55;8.82;;;6.65;;
64367;SDS011;50692;53.314;-6.300;2023-04-23T08:56:43;9.18;;;7.03;;
64367;SDS011;50692;53.314;-6.300;2023-04-23T08:59:30;9.40;;;7.30;;
64367;SDS011;50692;53.314;-6.300;2023-04-23T09:02:18;8.13;;;6.38;;
64367;SDS011;50692;53.314;-6.300;2023-04-23T09:05:05;9.05;;;7.40;;
64367;SDS011;50692;53.314;-6.300;2023-04-23T09:07:51;7.95;;;6.45;;
64367;SDS011;50692;53.314;-6.300;2023-04-23T09:10:41;7.65;;;5.85;;
64367;SDS011;50692;53.314;-6.300;2023-04-23T09:13:32;7.95;;;6.20;;
64367;SDS011;50692;53.314;-6.300;2023-04-23T09:16:19;8.00;;;6.13;;
64367;SDS011;50692;53.314;-6.300;2023-04-23T09:19:05;7.15;;;5.68;;
64367;SDS011;50692;53.314;-6.300;2023-04-23T09:21:54;8.32;;;6.30;;
64367;SDS011;50692;53.314;-6.300;2023-04-23T09:24:43;8.18;;;5.97;;
64367;SDS011;50692;53.314;-6.300;2023-04-23T09:27:28;6.97;;;6.00;;
64367;SDS011;50692;53.314;-6.300;2023-04-23T09:30:14;8.10;;;6.00;;
64367;SDS011;50692;53.314;-6.300;2023-04-23T09:33:01;9.05;;;6.43;;
64367;SDS011;50692;53.314;-6.300;2023-04-23T09:35:49;8.18;;;6.35;;
64367;SDS011;50692;53.314;-6.300;2023-04-23T09:38:35;7.40;;;5.95;;
64367;SDS011;50692;53.314;-6.300;2023-04-23T09:41:24;8.52;;;6.07;;
64367;SDS011;50692;53.314;-6.300;2023-04-23T09:44:13;7.70;;;4.70;;
64367;SDS011;50692;53.314;-6.300;2023-04-23T09:47:06;7.20;;;5.20;;
64367;SDS011;50692;53.314;-6.300;2023-04-23T09:49:56;5.47;;;4.40;;
64367;SDS011;50692;53.314;-6.300;2023-04-23T09:52:43;6.50;;;4.82;;
64367;SDS011;50692;53.314;-6.300;2023-04-23T09:55:33;7.57;;;5.57;;
64367;SDS011;50692;53.314;-6.300;2023-04-23T09:58:22;6.28;;;4.95;;
64367;SDS011;50692;53.314;-6.300;2023-04-23T10:01:09;6.78;;;5.30;;
64367;SDS011;50692;53.314;-6.300;2023-04-23T10:03:55;6.70;;;4.90;;
64367;SDS011;50692;53.314;-6.300;2023-04-23T10:06:41;7.07;;;5.40;;
64367;SDS011;50692;53.314;-6.300;2023-04-23T10:09:27;6.60;;;4.95;;
64367;SDS011;50692;53.314;-6.300;2023-04-23T10:12:14;7.78;;;5.20;;
64367;SDS011;50692;53.314;-6.300;2023-04-23T10:15:02;6.32;;;5.28;;
64367;SDS011;50692;53.314;-6.300;2023-04-23T10:17:49;6.70;;;4.90;;
64367;SDS011;50692;53.314;-6.300;2023-04-23T10:20:36;5.95;;;4.85;;
64367;SDS011;50692;53.314;-6.300;2023-04-23T10:23:22;7.38;;;4.88;;
64367;SDS011;50692;53.314;-6.300;2023-04-23T10:26:08;6.60;;;5.22;;
64367;SDS011;50692;53.314;-6.300;2023-04-23T10:28:59;6.47;;;5.07;;
64367;SDS011;50692;53.314;-6.300;2023-04-23T10:31:46;6.35;;;5.50;;
64367;SDS011;50692;53.314;-6.300;2023-04-23T10:34:33;6.90;;;5.53;;
64367;SDS011;50692;53.314;-6.300;2023-04-23T10:37:18;7.78;;;5.60;;
64367;SDS011;50692;53.314;-6.300;2023-04-23T10:40:09;7.43;;;5.82;;
64367;SDS011;50692;53.314;-6.300;2023-04-23T10:42:58;6.10;;;5.03;;
64367;SDS011;50692;53.314;-6.300;2023-04-23T10:45:45;6.40;;;4.90;;
64367;SDS011;50692;53.314;-6.300;2023-04-23T10:48:49;7.20;;;5.40;;
64367;SDS011;50692;53.314;-6.300;2023-04-23T10:51:36;6.35;;;4.85;;
64367;SDS011;50692;53.314;-6.300;2023-04-23T10:54:26;5.45;;;4.60;;
64367;SDS011;50692;53.314;-6.300;2023-04-23T10:57:14;6.93;;;5.03;;
64367;SDS011;50692;53.314;-6.300;2023-04-23T11:00:00;6.28;;;4.65;;
64367;SDS011;50692;53.314;-6.300;2023-04-23T11:02:46;6.03;;;4.72;;
64367;SDS011;50692;53.314;-6.300;2023-04-23T11:05:33;7.05;;;5.50;;
64367;SDS011;50692;53.314;-6.300;2023-04-23T11:08:19;6.35;;;5.35;;
64367;SDS011;50692;53.314;-6.300;2023-04-23T11:11:06;5.95;;;4.85;;
64367;SDS011;50692;53.314;-6.300;2023-04-23T11:13:53;7.00;;;5.00;;
64367;SDS011;50692;53.314;-6.300;2023-04-23T11:16:38;5.22;;;4.72;;
64367;SDS011;50692;53.314;-6.300;2023-04-23T11:19:25;6.10;;;5.20;;
64367;SDS011;50692;53.314;-6.300;2023-04-23T11:22:14;6.50;;;4.75;;
64367;SDS011;50692;53.314;-6.300;2023-04-23T11:25:03;4.65;;;4.15;;
64367;SDS011;50692;53.314;-6.300;2023-04-23T11:27:51;5.97;;;4.88;;
64367;SDS011;50692;53.314;-6.300;2023-04-23T11:30:38;4.95;;;4.20;;
64367;SDS011;50692;53.314;-6.300;2023-04-23T11:33:24;4.75;;;3.80;;
64367;SDS011;50692;53.314;-6.300;2023-04-23T11:36:10;4.60;;;3.90;;
64367;SDS011;50692;53.314;-6.300;2023-04-23T11:38:56;5.20;;;4.32;;
64367;SDS011;50692;53.314;-6.300;2023-04-23T11:41:42;5.65;;;4.20;;
64367;SDS011;50692;53.314;-6.300;2023-04-23T11:44:31;5.00;;;3.83;;
64367;SDS011;50692;53.314;-6.300;2023-04-23T11:47:16;4.95;;;4.30;;
64367;SDS011;50692;53.314;-6.300;2023-04-23T11:50:03;6.50;;;4.20;;
64367;SDS011;50692;53.314;-6.300;2023-04-23T11:52:49;5.85;;;4.50;;
64367;SDS011;50692;53.314;-6.300;2023-04-23T11:55:35;5.60;;;4.20;;
64367;SDS011;50692;53.314;-6.300;2023-04-23T11:58:21;5.63;;;4.43;;
64367;SDS011;50692;53.314;-6.300;2023-04-23T12:01:06;5.57;;;4.50;;
64367;SDS011;50692;53.314;-6.300;2023-04-23T12:03:52;4.68;;;4.00;;
64367;SDS011;50692;53.314;-6.300;2023-04-23T12:06:42;5.20;;;4.03;;
64367;SDS011;50692;53.314;-6.300;2023-04-23T12:09:29;5.63;;;4.07;;
64367;SDS011;50692;53.314;-6.300;2023-04-23T12:12:14;5.88;;;4.45;;
64367;SDS011;50692;53.314;-6.300;2023-04-23T12:15:04;5.68;;;4.28;;
64367;SDS011;50692;53.314;-6.300;2023-04-23T12:18:01;5.32;;;4.38;;
64367;SDS011;50692;53.314;-6.300;2023-04-23T12:20:53;5.57;;;4.22;;
64367;SDS011;50692;53.314;-6.300;2023-04-23T12:23:41;5.35;;;4.28;;
64367;SDS011;50692;53.314;-6.300;2023-04-23T12:26:29;9.10;;;4.95;;
64367;SDS011;50692;53.314;-6.300;2023-04-23T12:29:16;5.47;;;4.20;;
64367;SDS011;50692;53.314;-6.300;2023-04-23T12:32:03;5.57;;;4.20;;
64367;SDS011;50692;53.314;-6.300;2023-04-23T12:34:50;6.57;;;4.95;;
64367;SDS011;50692;53.314;-6.300;2023-04-23T12:37:39;5.70;;;4.78;;
64367;SDS011;50692;53.314;-6.300;2023-04-23T12:40:25;5.38;;;4.30;;
64367;SDS011;50692;53.314;-6.300;2023-04-23T12:43:11;4.82;;;4.28;;
64367;SDS011;50692;53.314;-6.300;2023-04-23T12:45:58;5.30;;;4.15;;
64367;SDS011;50692;53.314;-6.300;2023-04-23T12:48:44;5.05;;;4.32;;
64367;SDS011;50692;53.314;-6.300;2023-04-23T12:51:30;4.97;;;4.47;;
64367;SDS011;50692;53.314;-6.300;2023-04-23T12:54:16;5.07;;;4.47;;
64367;SDS011;50692;53.314;-6.300;2023-04-23T12:57:02;4.45;;;4.03;;
64367;SDS011;50692;53.314;-6.300;2023-04-23T12:59:49;4.93;;;4.30;;
64367;SDS011;50692;53.314;-6.300;2023-04-23T13:02:35;4.93;;;4.13;;
64367;SDS011;50692;53.314;-6.300;2023-04-23T13:05:21;5.90;;;4.50;;
64367;SDS011;50692;53.314;-6.300;2023-04-23T13:08:07;4.53;;;3.53;;
64367;SDS011;50692;53.314;-6.300;2023-04-23T13:10:53;3.92;;;3.30;;
64367;SDS011;50692;53.314;-6.300;2023-04-23T13:13:38;4.25;;;3.65;;
64367;SDS011;50692;53.314;-6.300;2023-04-23T13:16:25;5.03;;;3.63;;
64367;SDS011;50692;53.314;-6.300;2023-04-23T13:19:11;4.35;;;3.58;;
64367;SDS011;50692;53.314;-6.300;2023-04-23T13:21:57;4.45;;;3.40;;
64367;SDS011;50692;53.314;-6.300;2023-04-23T13:24:43;4.07;;;3.03;;
64367;SDS011;50692;53.314;-6.300;2023-04-23T13:27:29;3.65;;;3.17;;
64367;SDS011;50692;53.314;-6.300;2023-04-23T13:30:15;4.82;;;3.95;;
64367;SDS011;50692;53.314;-6.300;2023-04-23T13:33:01;5.13;;;3.42;;
64367;SDS011;50692;53.314;-6.300;2023-04-23T13:35:47;5.35;;;3.58;;
64367;SDS011;50692;53.314;-6.300;2023-04-23T13:38:33;5.10;;;4.10;;
64367;SDS011;50692;53.314;-6.300;2023-04-23T13:41:19;5.50;;;4.70;;
64367;SDS011;50692;53.314;-6.300;2023-04-23T13:44:04;5.35;;;4.15;;
64367;SDS011;50692;53.314;-6.300;2023-04-23T13:46:50;5.60;;;4.10;;
64367;SDS011;50692;53.314;-6.300;2023-04-23T13:49:36;5.47;;;4.15;;
64367;SDS011;50692;53.314;-6.300;2023-04-23T13:52:22;5.00;;;4.22;;
64367;SDS011;50692;53.314;-6.300;2023-04-23T13:55:08;5.20;;;4.63;;
64367;SDS011;50692;53.314;-6.300;2023-04-23T13:57:54;4.65;;;3.75;;
64367;SDS011;50692;53.314;-6.300;2023-04-23T14:00:42;6.03;;;4.78;;
64367;SDS011;50692;53.314;-6.300;2023-04-23T14:03:28;6.05;;;4.78;;
64367;SDS011;50692;53.314;-6.300;2023-04-23T14:06:14;5.22;;;4.00;;
64367;SDS011;50692;53.314;-6.300;2023-04-23T14:09:00;5.50;;;4.60;;
64367;SDS011;50692;53.314;-6.300;2023-04-23T14:11:45;5.47;;;4.63;;
64367;SDS011;50692;53.314;-6.300;2023-04-23T14:14:31;4.95;;;4.22;;
64367;SDS011;50692;53.314;-6.300;2023-04-23T14:17:17;4.35;;;3.80;;
64367;SDS011;50692;53.314;-6.300;2023-04-23T14:20:03;4.18;;;3.78;;
64367;SDS011;50692;53.314;-6.300;2023-04-23T14:22:54;4.38;;;3.58;;
64367;SDS011;50692;53.314;-6.300;2023-04-23T14:25:44;5.03;;;4.10;;
64367;SDS011;50692;53.314;-6.300;2023-04-23T14:28:37;4.88;;;4.38;;
64367;SDS011;50692;53.314;-6.300;2023-04-23T14:31:25;4.95;;;4.03;;
64367;SDS011;50692;53.314;-6.300;2023-04-23T14:34:11;4.13;;;3.60;;
64367;SDS011;50692;53.314;-6.300;2023-04-23T14:36:57;4.78;;;3.67;;
64367;SDS011;50692;53.314;-6.300;2023-04-23T14:39:42;9.43;;;5.15;;
64367;SDS011;50692;53.314;-6.300;2023-04-23T14:42:28;5.63;;;4.43;;
64367;SDS011;50692;53.314;-6.300;2023-04-23T14:45:15;5.75;;;3.70;;
64367;SDS011;50692;53.314;-6.300;2023-04-23T14:48:02;3.78;;;3.20;;
64367;SDS011;50692;53.314;-6.300;2023-04-23T14:50:48;3.85;;;3.13;;
64367;SDS011;50692;53.314;-6.300;2023-04-23T14:53:35;3.88;;;3.40;;
64367;SDS011;50692;53.314;-6.300;2023-04-23T14:56:21;3.33;;;2.75;;
64367;SDS011;50692;53.314;-6.300;2023-04-23T14:59:06;5.47;;;3.53;;
64367;SDS011;50692;53.314;-6.300;2023-04-23T15:01:53;3.50;;;3.20;;
64367;SDS011;50692;53.314;-6.300;2023-04-23T15:04:38;4.63;;;4.15;;
64367;SDS011;50692;53.314;-6.300;2023-04-23T15:07:24;4.85;;;3.33;;
64367;SDS011;50692;53.314;-6.300;2023-04-23T15:10:11;5.45;;;3.55;;
64367;SDS011;50692;53.314;-6.300;2023-04-23T15:13:06;4.72;;;4.00;;
64367;SDS011;50692;53.314;-6.300;2023-04-23T15:16:01;4.60;;;3.90;;
64367;SDS011;50692;53.314;-6.300;2023-04-23T15:18:49;11.30;;;8.65;;
64367;SDS011;50692;53.314;-6.300;2023-04-23T15:21:35;4.03;;;3.60;;
64367;SDS011;50692;53.314;-6.300;2023-04-23T15:24:22;6.90;;;5.43;;
64367;SDS011;50692;53.314;-6.300;2023-04-23T15:27:08;6.13;;;4.95;;
64367;SDS011;50692;53.314;-6.300;2023-04-23T15:29:56;6.53;;;5.03;;
64367;SDS011;50692;53.314;-6.300;2023-04-23T15:32:42;4.97;;;4.10;;
64367;SDS011;50692;53.314;-6.300;2023-04-23T15:35:28;4.63;;;3.78;;
64367;SDS011;50692;53.314;-6.300;2023-04-23T15:38:14;4.82;;;3.90;;
64367;SDS011;50692;53.314;-6.300;2023-04-23T15:41:01;5.50;;;4.05;;
64367;SDS011;50692;53.314;-6.300;2023-04-23T15:43:47;5.10;;;3.75;;
64367;SDS011;50692;53.314;-6.300;2023-04-23T15:46:34;4.30;;;3.88;;
64367;SDS011;50692;53.314;-6.300;2023-04-23T15:49:20;5.45;;;3.88;;
64367;SDS011;50692;53.314;-6.300;2023-04-23T15:52:06;4.60;;;3.10;;
64367;SDS011;50692;53.314;-6.300;2023-04-23T15:54:52;3.85;;;3.08;;
64367;SDS011;50692;53.314;-6.300;2023-04-23T15:57:38;3.60;;;3.10;;
64367;SDS011;50692;53.314;-6.300;2023-04-23T16:00:23;3.70;;;3.00;;
64367;SDS011;50692;53.314;-6.300;2023-04-23T16:03:09;3.83;;;3.17;;
64367;SDS011;50692;53.314;-6.300;2023-04-23T16:05:56;4.72;;;3.00;;
64367;SDS011;50692;53.314;-6.300;2023-04-23T16:08:41;3.90;;;3.20;;
64367;SDS011;50692;53.314;-6.300;2023-04-23T16:11:27;3.80;;;3.08;;
64367;SDS011;50692;53.314;-6.300;2023-04-23T16:14:14;4.35;;;3.20;;
64367;SDS011;50692;53.314;-6.300;2023-04-23T16:16:59;5.03;;;3.65;;
64367;SDS011;50692;53.314;-6.300;2023-04-23T16:19:45;4.28;;;3.45;;
64367;SDS011;50692;53.314;-6.300;2023-04-23T16:22:31;4.13;;;3.13;;
64367;SDS011;50692;53.314;-6.300;2023-04-23T16:25:17;6.00;;;3.50;;
64367;SDS011;50692;53.314;-6.300;2023-04-23T16:28:03;3.55;;;3.20;;